2019/11/20 20:30 YSSY 202030Z 36005KT 5000 FU NSC 21/15 Q1016
2019/11/20 20:44 YMML 202044Z 01030G40KT CAVOK 28/M03 Q1003
2019/11/20 20:30 YSCB 202030Z AUTO 13005KT 9999 // NCD 17/10 Q1016 RF00.0/000.0
2019/11/20 20:30 YPAD 202030Z 27015KT 6000 FEW011 BKN015 18/15 Q1005
2019/11/20 20:30 YPPH 202030Z 12003KT CAVOK 07/05 Q1020 NOSIG
2019/11/20 20:30 YBBN 202030Z 06012KT 9999 FEW018 SCT029 BKN300 23/19 Q1018
2019/11/20 20:30 YMHB 202030Z 31009KT CAVOK 18/01 Q0997
2019/11/20 20:30 NZAA 202030Z AUTO 19010KT 160V220 9999 NCD 16/07 Q1018 NOSIG
2019/11/20 20:30 NZCH 202030Z AUTO 04004KT 360V070 9999 NCD 12/06 Q1016 NOSIG

Powered by MinhViet JSC.